sensor_id;sensor_type;location;lat;lon;timestamp;pressure;altitude;pressure_sealevel;temperature;humidity
62011;BME280;47967;51.756;10.174;2023-04-08T04:00:29;100282.03;;;6.02;81.75
62011;BME280;47967;51.756;10.174;2023-04-08T04:04:32;100277.34;;;6.04;82.00
62011;BME280;47967;51.756;10.174;2023-04-08T04:08:37;100283.03;;;6.01;82.20
62011;BME280;47967;51.756;10.174;2023-04-08T04:12:39;100291.59;;;6.04;82.63
62011;BME280;47967;51.756;10.174;2023-04-08T04:16:43;100287.69;;;5.99;82.57
62011;BME280;47967;51.756;10.174;2023-04-08T04:20:46;100298.34;;;6.17;82.48
62011;BME280;47967;51.756;10.174;2023-04-08T04:24:49;100305.19;;;6.11;82.40
62011;BME280;47967;51.756;10.174;2023-04-08T04:28:52;100307.75;;;6.21;81.91
62011;BME280;47967;51.756;10.174;2023-04-08T04:32:55;100311.06;;;6.15;82.39
62011;BME280;47967;51.756;10.174;2023-04-08T04:36:58;100309.38;;;6.14;82.36
62011;BME280;47967;51.756;10.174;2023-04-08T04:41:01;100320.31;;;6.20;82.50
62011;BME280;47967;51.756;10.174;2023-04-08T04:45:04;100324.69;;;6.21;82.14
62011;BME280;47967;51.756;10.174;2023-04-08T04:49:08;100322.47;;;6.17;82.55
62011;BME280;47967;51.756;10.174;2023-04-08T04:53:11;100318.75;;;6.09;82.40
62011;BME280;47967;51.756;10.174;2023-04-08T04:57:13;100325.31;;;6.15;82.76
62011;BME280;47967;51.756;10.174;2023-04-08T05:01:16;100328.00;;;6.15;82.49
62011;BME280;47967;51.756;10.174;2023-04-08T05:05:20;100329.53;;;6.26;82.39
62011;BME280;47967;51.756;10.174;2023-04-08T05:09:23;100335.53;;;6.20;82.47
62011;BME280;47967;51.756;10.174;2023-04-08T05:13:25;100338.44;;;6.27;82.42
62011;BME280;47967;51.756;10.174;2023-04-08T05:17:28;100338.75;;;6.23;82.38
62011;BME280;47967;51.756;10.174;2023-04-08T05:21:32;100342.94;;;6.26;82.38
62011;BME280;47967;51.756;10.174;2023-04-08T05:25:34;100349.97;;;6.27;82.21
62011;BME280;47967;51.756;10.174;2023-04-08T05:29:37;100356.72;;;6.31;82.39
62011;BME280;47967;51.756;10.174;2023-04-08T05:33:40;100357.25;;;6.35;82.42
62011;BME280;47967;51.756;10.174;2023-04-08T05:37:44;100359.97;;;6.43;82.30
62011;BME280;47967;51.756;10.174;2023-04-08T05:41:46;100358.78;;;6.37;82.23
62011;BME280;47967;51.756;10.174;2023-04-08T05:45:49;100364.97;;;6.38;82.28
62011;BME280;47967;51.756;10.174;2023-04-08T05:49:51;100362.28;;;6.38;82.59
62011;BME280;47967;51.756;10.174;2023-04-08T05:53:55;100353.78;;;6.43;82.46
62011;BME280;47967;51.756;10.174;2023-04-08T05:57:58;100356.28;;;6.44;83.04
62011;BME280;47967;51.756;10.174;2023-04-08T06:02:01;100361.13;;;6.40;82.62
62011;BME280;47967;51.756;10.174;2023-04-08T06:06:03;100367.38;;;6.49;82.60
62011;BME280;47967;51.756;10.174;2023-04-08T06:10:12;100372.47;;;6.61;81.79
62011;BME280;47967;51.756;10.174;2023-04-08T06:14:14;100372.13;;;6.55;82.12
62011;BME280;47967;51.756;10.174;2023-04-08T06:18:17;100368.13;;;6.60;82.24
62011;BME280;47967;51.756;10.174;2023-04-08T06:22:19;100375.47;;;6.57;82.18
62011;BME280;47967;51.756;10.174;2023-04-08T06:26:23;100379.38;;;6.63;81.68
62011;BME280;47967;51.756;10.174;2023-04-08T06:30:26;100383.25;;;6.69;81.45
62011;BME280;47967;51.756;10.174;2023-04-08T06:34:29;100392.72;;;6.55;81.53
62011;BME280;47967;51.756;10.174;2023-04-08T06:38:32;100397.03;;;6.74;81.48
62011;BME280;47967;51.756;10.174;2023-04-08T06:42:35;100393.25;;;6.93;81.14
62011;BME280;47967;51.756;10.174;2023-04-08T06:46:53;100399.00;;;7.07;80.46
62011;BME280;47967;51.756;10.174;2023-04-08T06:50:56;100396.53;;;7.13;79.97
62011;BME280;47967;51.756;10.174;2023-04-08T06:54:59;100397.88;;;7.17;79.85
62011;BME280;47967;51.756;10.174;2023-04-08T06:59:03;100399.06;;;7.23;79.71
62011;BME280;47967;51.756;10.174;2023-04-08T07:03:06;100412.88;;;7.36;79.37
62011;BME280;47967;51.756;10.174;2023-04-08T07:07:08;100407.16;;;7.40;79.17
62011;BME280;47967;51.756;10.174;2023-04-08T07:11:11;100411.31;;;7.26;79.34
62011;BME280;47967;51.756;10.174;2023-04-08T07:15:15;100422.38;;;7.22;79.17
62011;BME280;47967;51.756;10.174;2023-04-08T07:19:18;100412.75;;;7.55;78.63
62011;BME280;47967;51.756;10.174;2023-04-08T07:23:21;100424.41;;;7.20;78.75
62011;BME280;47967;51.756;10.174;2023-04-08T07:27:24;100424.47;;;7.45;78.84
62011;BME280;47967;51.756;10.174;2023-04-08T07:31:28;100432.38;;;7.55;77.81
62011;BME280;47967;51.756;10.174;2023-04-08T07:35:30;100432.78;;;7.77;78.11
62011;BME280;47967;51.756;10.174;2023-04-08T07:39:33;100438.47;;;7.74;77.73
62011;BME280;47967;51.756;10.174;2023-04-08T07:43:36;100443.66;;;7.67;77.69
62011;BME280;47967;51.756;10.174;2023-04-08T07:47:40;100452.03;;;7.64;77.51
62011;BME280;47967;51.756;10.174;2023-04-08T07:51:43;100449.22;;;7.82;77.29
62011;BME280;47967;51.756;10.174;2023-04-08T07:55:46;100447.72;;;7.79;77.37
62011;BME280;47967;51.756;10.174;2023-04-08T07:59:48;100464.03;;;7.94;76.92
62011;BME280;47967;51.756;10.174;2023-04-08T08:03:52;100466.56;;;8.12;76.73
62011;BME280;47967;51.756;10.174;2023-04-08T08:07:56;100460.22;;;8.46;75.95
62011;BME280;47967;51.756;10.174;2023-04-08T08:11:58;100459.88;;;8.66;74.79
62011;BME280;47967;51.756;10.174;2023-04-08T08:16:01;100467.09;;;8.57;74.01
62011;BME280;47967;51.756;10.174;2023-04-08T08:20:06;100470.63;;;8.66;74.21
62011;BME280;47967;51.756;10.174;2023-04-08T08:24:09;100477.88;;;8.65;74.74
62011;BME280;47967;51.756;10.174;2023-04-08T08:28:12;100471.44;;;8.67;74.28
62011;BME280;47967;51.756;10.174;2023-04-08T08:32:14;100475.00;;;8.59;73.50
62011;BME280;47967;51.756;10.174;2023-04-08T08:36:18;100481.19;;;8.76;73.39
62011;BME280;47967;51.756;10.174;2023-04-08T08:40:21;100480.34;;;8.84;73.68
62011;BME280;47967;51.756;10.174;2023-04-08T08:44:24;100492.47;;;8.88;73.29
62011;BME280;47967;51.756;10.174;2023-04-08T08:48:27;100492.75;;;9.09;72.83
62011;BME280;47967;51.756;10.174;2023-04-08T08:52:31;100489.09;;;8.86;73.32
62011;BME280;47967;51.756;10.174;2023-04-08T08:56:33;100490.09;;;8.85;73.55
62011;BME280;47967;51.756;10.174;2023-04-08T09:00:37;100504.03;;;8.88;73.48
62011;BME280;47967;51.756;10.174;2023-04-08T09:04:55;100513.72;;;9.22;72.96
62011;BME280;47967;51.756;10.174;2023-04-08T09:08:59;100514.53;;;9.31;72.37
62011;BME280;47967;51.756;10.174;2023-04-08T09:13:03;100518.25;;;9.30;72.55
62011;BME280;47967;51.756;10.174;2023-04-08T09:17:05;100513.22;;;9.19;72.86
62011;BME280;47967;51.756;10.174;2023-04-08T09:21:08;100517.63;;;9.20;73.00
62011;BME280;47967;51.756;10.174;2023-04-08T09:25:22;100514.59;;;9.23;72.85
62011;BME280;47967;51.756;10.174;2023-04-08T09:29:25;100506.75;;;9.84;71.83
62011;BME280;47967;51.756;10.174;2023-04-08T09:33:32;100512.59;;;9.96;69.99
62011;BME280;47967;51.756;10.174;2023-04-08T09:37:35;100519.03;;;10.65;70.01
62011;BME280;47967;51.756;10.174;2023-04-08T09:41:39;100513.31;;;11.28;69.21
62011;BME280;47967;51.756;10.174;2023-04-08T09:45:44;100534.13;;;11.57;65.81
62011;BME280;47967;51.756;10.174;2023-04-08T09:49:50;100527.31;;;11.46;64.17
62011;BME280;47967;51.756;10.174;2023-04-08T09:53:59;100531.34;;;12.02;64.54
62011;BME280;47967;51.756;10.174;2023-04-08T09:58:09;100523.56;;;11.62;63.18
62011;BME280;47967;51.756;10.174;2023-04-08T10:02:16;100527.88;;;11.42;64.73
62011;BME280;47967;51.756;10.174;2023-04-08T10:06:21;100532.53;;;11.33;64.70
62011;BME280;47967;51.756;10.174;2023-04-08T10:10:28;100525.47;;;11.98;64.46
62011;BME280;47967;51.756;10.174;2023-04-08T10:14:32;100529.91;;;11.69;62.61
62011;BME280;47967;51.756;10.174;2023-04-08T10:18:35;100518.78;;;11.64;63.92
62011;BME280;47967;51.756;10.174;2023-04-08T10:22:47;100531.63;;;12.07;63.22
62011;BME280;47967;51.756;10.174;2023-04-08T10:26:50;100530.72;;;12.43;62.28
62011;BME280;47967;51.756;10.174;2023-04-08T10:30:55;100535.16;;;12.51;61.10
62011;BME280;47967;51.756;10.174;2023-04-08T10:34:58;100538.00;;;12.64;60.48
62011;BME280;47967;51.756;10.174;2023-04-08T10:39:00;100548.31;;;12.32;61.29
62011;BME280;47967;51.756;10.174;2023-04-08T10:43:03;100536.94;;;12.87;60.56
62011;BME280;47967;51.756;10.174;2023-04-08T10:47:08;100528.56;;;13.39;59.90
62011;BME280;47967;51.756;10.174;2023-04-08T10:51:11;100528.81;;;13.16;59.79
62011;BME280;47967;51.756;10.174;2023-04-08T10:55:14;100539.69;;;13.51;58.92
62011;BME280;47967;51.756;10.174;2023-04-08T10:59:26;100519.25;;;13.55;61.17
62011;BME280;47967;51.756;10.174;2023-04-08T11:03:31;100536.59;;;13.54;59.65
62011;BME280;47967;51.756;10.174;2023-04-08T11:07:39;100536.09;;;13.85;58.33
62011;BME280;47967;51.756;10.174;2023-04-08T11:11:42;100542.44;;;13.57;58.92
62011;BME280;47967;51.756;10.174;2023-04-08T11:15:45;100539.16;;;13.69;58.50
62011;BME280;47967;51.756;10.174;2023-04-08T11:19:51;100535.09;;;13.93;57.82
62011;BME280;47967;51.756;10.174;2023-04-08T11:23:54;100543.75;;;14.23;58.01
62011;BME280;47967;51.756;10.174;2023-04-08T11:27:57;100537.34;;;13.41;59.26
62011;BME280;47967;51.756;10.174;2023-04-08T11:32:00;100544.25;;;12.87;61.07
62011;BME280;47967;51.756;10.174;2023-04-08T11:36:05;100530.47;;;13.10;61.34
62011;BME280;47967;51.756;10.174;2023-04-08T11:40:10;100540.16;;;14.16;58.77
62011;BME280;47967;51.756;10.174;2023-04-08T11:44:13;100535.81;;;13.67;58.13
62011;BME280;47967;51.756;10.174;2023-04-08T11:48:16;100541.44;;;13.72;59.12
62011;BME280;47967;51.756;10.174;2023-04-08T11:52:20;100547.75;;;13.79;58.27
62011;BME280;47967;51.756;10.174;2023-04-08T11:56:23;100540.25;;;13.11;60.40
62011;BME280;47967;51.756;10.174;2023-04-08T12:00:26;100534.63;;;13.41;60.99
62011;BME280;47967;51.756;10.174;2023-04-08T12:04:29;100544.25;;;13.43;61.53
62011;BME280;47967;51.756;10.174;2023-04-08T12:08:33;100528.53;;;13.67;61.00
62011;BME280;47967;51.756;10.174;2023-04-08T12:12:36;100546.44;;;13.05;60.87
62011;BME280;47967;51.756;10.174;2023-04-08T12:16:39;100551.72;;;13.13;60.68
62011;BME280;47967;51.756;10.174;2023-04-08T12:20:42;100552.75;;;12.84;62.42
62011;BME280;47967;51.756;10.174;2023-04-08T12:24:46;100538.00;;;13.15;62.31
62011;BME280;47967;51.756;10.174;2023-04-08T12:28:49;100541.13;;;13.47;60.68
62011;BME280;47967;51.756;10.174;2023-04-08T12:32:51;100542.44;;;13.57;61.49
62011;BME280;47967;51.756;10.174;2023-04-08T12:36:55;100537.78;;;13.16;61.24
62011;BME280;47967;51.756;10.174;2023-04-08T12:41:00;100548.31;;;12.76;62.42
62011;BME280;47967;51.756;10.174;2023-04-08T12:45:03;100545.63;;;12.54;62.10
62011;BME280;47967;51.756;10.174;2023-04-08T12:49:05;100533.78;;;13.12;63.10
62011;BME280;47967;51.756;10.174;2023-04-08T12:53:09;100530.69;;;13.15;61.10
62011;BME280;47967;51.756;10.174;2023-04-08T12:57:13;100531.56;;;14.06;59.69
62011;BME280;47967;51.756;10.174;2023-04-08T13:01:16;100530.69;;;14.67;58.30
62011;BME280;47967;51.756;10.174;2023-04-08T13:05:19;100528.72;;;14.34;58.27
62011;BME280;47967;51.756;10.174;2023-04-08T13:09:40;100528.38;;;14.71;57.49
62011;BME280;47967;51.756;10.174;2023-04-08T13:13:47;100518.81;;;13.93;58.06
62011;BME280;47967;51.756;10.174;2023-04-08T13:17:49;100519.41;;;13.88;59.78
62011;BME280;47967;51.756;10.174;2023-04-08T13:21:52;100516.81;;;14.35;57.71
62011;BME280;47967;51.756;10.174;2023-04-08T13:25:54;100524.72;;;14.17;56.89
62011;BME280;47967;51.756;10.174;2023-04-08T13:29:58;100521.69;;;13.78;62.75
62011;BME280;47967;51.756;10.174;2023-04-08T13:34:01;100515.94;;;14.01;62.71
62011;BME280;47967;51.756;10.174;2023-04-08T13:38:03;100528.84;;;12.65;63.81
62011;BME280;47967;51.756;10.174;2023-04-08T13:42:06;100520.13;;;12.92;66.56
62011;BME280;47967;51.756;10.174;2023-04-08T13:46:10;100512.91;;;12.77;66.70
62011;BME280;47967;51.756;10.174;2023-04-08T13:50:13;100517.97;;;13.44;63.75
62011;BME280;47967;51.756;10.174;2023-04-08T13:54:16;100508.47;;;13.61;63.75
62011;BME280;47967;51.756;10.174;2023-04-08T13:58:18;100510.03;;;13.91;63.73
62011;BME280;47967;51.756;10.174;2023-04-08T14:02:26;100508.75;;;13.80;62.93
62011;BME280;47967;51.756;10.174;2023-04-08T14:06:29;100515.19;;;13.37;62.18
62011;BME280;47967;51.756;10.174;2023-04-08T14:10:31;100512.47;;;14.48;60.80
62011;BME280;47967;51.756;10.174;2023-04-08T14:14:34;100508.47;;;14.44;59.69
62011;BME280;47967;51.756;10.174;2023-04-08T14:18:37;100508.25;;;13.63;62.23
62011;BME280;47967;51.756;10.174;2023-04-08T14:22:40;100507.44;;;13.63;61.61
62011;BME280;47967;51.756;10.174;2023-04-08T14:26:43;100516.31;;;13.43;58.69
62011;BME280;47967;51.756;10.174;2023-04-08T14:30:46;100505.97;;;14.55;59.30
62011;BME280;47967;51.756;10.174;2023-04-08T14:34:50;100498.47;;;15.11;57.81
62011;BME280;47967;51.756;10.174;2023-04-08T14:38:53;100494.44;;;15.79;52.26
62011;BME280;47967;51.756;10.174;2023-04-08T14:42:56;100503.84;;;16.29;47.73
62011;BME280;47967;51.756;10.174;2023-04-08T14:46:58;100505.50;;;15.98;48.09
62011;BME280;47967;51.756;10.174;2023-04-08T14:51:02;100508.97;;;15.60;48.61
62011;BME280;47967;51.756;10.174;2023-04-08T14:55:06;100509.91;;;15.92;49.01
62011;BME280;47967;51.756;10.174;2023-04-08T14:59:08;100512.88;;;15.91;47.89
62011;BME280;47967;51.756;10.174;2023-04-08T15:03:11;100511.53;;;16.00;48.43
62011;BME280;47967;51.756;10.174;2023-04-08T15:07:15;100516.53;;;15.51;48.25
62011;BME280;47967;51.756;10.174;2023-04-08T15:11:17;100513.28;;;15.15;48.70
62011;BME280;47967;51.756;10.174;2023-04-08T15:15:21;100523.56;;;14.73;49.52
62011;BME280;47967;51.756;10.174;2023-04-08T15:19:23;100517.22;;;14.32;51.28
62011;BME280;47967;51.756;10.174;2023-04-08T15:23:27;100529.94;;;14.18;51.25
62011;BME280;47967;51.756;10.174;2023-04-08T15:27:30;100532.34;;;14.68;50.66
62011;BME280;47967;51.756;10.174;2023-04-08T15:31:33;100537.38;;;14.78;52.92
62011;BME280;47967;51.756;10.174;2023-04-08T15:35:36;100553.44;;;14.66;50.32
62011;BME280;47967;51.756;10.174;2023-04-08T15:39:41;100559.00;;;14.31;51.24
62011;BME280;47967;51.756;10.174;2023-04-08T15:43:43;100569.56;;;14.06;52.21
62011;BME280;47967;51.756;10.174;2023-04-08T15:47:46;100584.66;;;13.10;53.12
62011;BME280;47967;51.756;10.174;2023-04-08T15:51:48;100596.91;;;12.04;55.60
62011;BME280;47967;51.756;10.174;2023-04-08T15:55:52;100600.06;;;11.93;56.52
62011;BME280;47967;51.756;10.174;2023-04-08T15:59:55;100599.06;;;11.94;57.40
62011;BME280;47967;51.756;10.174;2023-04-08T16:03:57;100604.38;;;11.72;57.88
62011;BME280;47967;51.756;10.174;2023-04-08T16:08:01;100602.88;;;11.54;59.06
62011;BME280;47967;51.756;10.174;2023-04-08T16:12:05;100599.69;;;11.81;58.91
62011;BME280;47967;51.756;10.174;2023-04-08T16:16:08;100601.00;;;11.85;58.21
62011;BME280;47967;51.756;10.174;2023-04-08T16:20:12;100606.41;;;11.85;59.05
62011;BME280;47967;51.756;10.174;2023-04-08T16:24:15;100611.56;;;12.10;58.71
62011;BME280;47967;51.756;10.174;2023-04-08T16:28:22;100621.69;;;12.23;59.27
62011;BME280;47967;51.756;10.174;2023-04-08T16:32:27;100621.22;;;12.34;57.35
62011;BME280;47967;51.756;10.174;2023-04-08T16:36:30;100620.88;;;12.07;57.36
62011;BME280;47967;51.756;10.174;2023-04-08T16:40:33;100619.94;;;12.73;55.67
62011;BME280;47967;51.756;10.174;2023-04-08T16:44:37;100618.44;;;12.49;55.45
62011;BME280;47967;51.756;10.174;2023-04-08T16:48:40;100630.31;;;11.96;56.10
62011;BME280;47967;51.756;10.174;2023-04-08T16:52:44;100639.88;;;11.54;57.73
62011;BME280;47967;51.756;10.174;2023-04-08T16:56:49;100643.19;;;11.41;57.80
62011;BME280;47967;51.756;10.174;2023-04-08T17:00:53;100641.09;;;11.66;58.02
62011;BME280;47967;51.756;10.174;2023-04-08T17:04:56;100647.53;;;12.10;57.28
62011;BME280;47967;51.756;10.174;2023-04-08T17:08:58;100648.41;;;12.11;56.60
62011;BME280;47967;51.756;10.174;2023-04-08T17:13:01;100654.72;;;12.18;56.65
62011;BME280;47967;51.756;10.174;2023-04-08T17:17:06;100654.94;;;12.01;56.59
62011;BME280;47967;51.756;10.174;2023-04-08T17:21:09;100658.44;;;11.57;57.03
62011;BME280;47967;51.756;10.174;2023-04-08T17:25:14;100658.56;;;11.26;57.76
62011;BME280;47967;51.756;10.174;2023-04-08T17:29:16;100668.72;;;11.00;58.73
62011;BME280;47967;51.756;10.174;2023-04-08T17:33:20;100665.91;;;11.17;58.63
62011;BME280;47967;51.756;10.174;2023-04-08T17:37:23;100670.84;;;11.28;58.67
62011;BME280;47967;51.756;10.174;2023-04-08T17:41:25;100669.31;;;11.34;58.27
62011;BME280;47967;51.756;10.174;2023-04-08T17:45:40;100680.72;;;11.21;58.25
62011;BME280;47967;51.756;10.174;2023-04-08T17:49:44;100675.78;;;11.25;57.83
62011;BME280;47967;51.756;10.174;2023-04-08T17:53:46;100675.81;;;11.01;58.42
62011;BME280;47967;51.756;10.174;2023-04-08T17:57:49;100672.25;;;11.01;58.64
62011;BME280;47967;51.756;10.174;2023-04-08T18:01:52;100676.81;;;11.00;59.39
62011;BME280;47967;51.756;10.174;2023-04-08T18:05:56;100678.06;;;10.89;59.65
62011;BME280;47967;51.756;10.174;2023-04-08T18:09:59;100681.31;;;10.85;59.74
62011;BME280;47967;51.756;10.174;2023-04-08T18:14:02;100692.16;;;10.53;59.91
62011;BME280;47967;51.756;10.174;2023-04-08T18:18:05;100696.72;;;10.45;61.05
62011;BME280;47967;51.756;10.174;2023-04-08T18:22:09;100698.72;;;10.51;60.59
62011;BME280;47967;51.756;10.174;2023-04-08T18:26:12;100697.00;;;10.58;61.28
62011;BME280;47967;51.756;10.174;2023-04-08T18:30:14;100709.91;;;10.71;60.73
62011;BME280;47967;51.756;10.174;2023-04-08T18:34:17;100714.78;;;10.36;60.99
62011;BME280;47967;51.756;10.174;2023-04-08T18:38:22;100723.53;;;10.46;61.42
62011;BME280;47967;51.756;10.174;2023-04-08T18:42:24;100722.94;;;10.19;62.27
62011;BME280;47967;51.756;10.174;2023-04-08T18:46:27;100730.06;;;9.96;63.32
62011;BME280;47967;51.756;10.174;2023-04-08T18:50:30;100728.75;;;9.75;64.81
62011;BME280;47967;51.756;10.174;2023-04-08T18:54:33;100729.25;;;9.78;64.32
62011;BME280;47967;51.756;10.174;2023-04-08T18:58:36;100734.34;;;9.73;63.73
62011;BME280;47967;51.756;10.174;2023-04-08T19:02:39;100736.03;;;9.66;63.69
62011;BME280;47967;51.756;10.174;2023-04-08T19:06:42;100741.94;;;9.53;64.18
62011;BME280;47967;51.756;10.174;2023-04-08T19:10:46;100739.94;;;9.39;64.20
62011;BME280;47967;51.756;10.174;2023-04-08T19:14:48;100734.00;;;9.19;64.69
62011;BME280;47967;51.756;10.174;2023-04-08T19:18:51;100740.88;;;8.96;65.07
62011;BME280;47967;51.756;10.174;2023-04-08T19:22:55;100738.09;;;8.63;66.62
62011;BME280;47967;51.756;10.174;2023-04-08T19:26:59;100742.94;;;8.52;67.87
62011;BME280;47967;51.756;10.174;2023-04-08T19:31:01;100741.50;;;8.39;68.59
62011;BME280;47967;51.756;10.174;2023-04-08T19:35:05;100745.78;;;8.15;69.31
62011;BME280;47967;51.756;10.174;2023-04-08T19:39:08;100744.69;;;8.00;70.55
62011;BME280;47967;51.756;10.174;2023-04-08T19:43:12;100741.78;;;7.93;71.14
62011;BME280;47967;51.756;10.174;2023-04-08T19:47:14;100736.84;;;7.80;71.45
62011;BME280;47967;51.756;10.174;2023-04-08T19:51:18;100738.56;;;7.63;71.44
62011;BME280;47967;51.756;10.174;2023-04-08T19:55:22;100735.91;;;7.27;73.02
62011;BME280;47967;51.756;10.174;2023-04-08T19:59:26;100747.44;;;7.19;73.84
62011;BME280;47967;51.756;10.174;2023-04-08T20:03:29;100746.38;;;7.12;74.39
62011;BME280;47967;51.756;10.174;2023-04-08T20:07:31;100748.50;;;7.09;74.38
62011;BME280;47967;51.756;10.174;2023-04-08T20:11:34;100756.03;;;7.05;74.20
62011;BME280;47967;51.756;10.174;2023-04-08T20:15:38;100756.53;;;6.91;74.46
62011;BME280;47967;51.756;10.174;2023-04-08T20:19:40;100764.22;;;6.57;74.86
62011;BME280;47967;51.756;10.174;2023-04-08T20:23:43;100761.78;;;6.36;75.33
62011;BME280;47967;51.756;10.174;2023-04-08T20:27:45;100766.06;;;6.29;76.23
62011;BME280;47967;51.756;10.174;2023-04-08T20:31:49;100770.22;;;6.41;76.69
62011;BME280;47967;51.756;10.174;2023-04-08T20:35:52;100767.84;;;6.38;76.25
62011;BME280;47967;51.756;10.174;2023-04-08T20:39:57;100769.09;;;6.06;76.54
62011;BME280;47967;51.756;10.174;2023-04-08T20:44:00;100768.28;;;5.86;76.66
62011;BME280;47967;51.756;10.174;2023-04-08T20:48:04;100771.25;;;5.73;77.81
62011;BME280;47967;51.756;10.174;2023-04-08T20:52:07;100772.72;;;5.28;80.07
62011;BME280;47967;51.756;10.174;2023-04-08T20:56:10;100769.16;;;5.48;80.50
